Time;durP1;ratioP1;P1;durP2;ratioP2;P2;SDS_P1;SDS_P2;PMS_P1;PMS_P2;Temp;Humidity;BMP_temperature;BMP_pressure;BME280_temperature;BME280_humidity;BME280_pressure;Samples;Min_cycle;Max_cycle;Signal;HPM_P1;HPM_P2
2023/12/11 00:02:02;;;;;;;10.67;2.77;;;10.80;99.90;;;;;;5032799;28;20210;-79
2023/12/11 00:04:30;;;;;;;5.93;2.33;;;10.80;99.90;;;;;;5016669;28;20230;-79
2023/12/11 00:06:59;;;;;;;8.83;2.63;;;10.80;99.90;;;;;;5018827;28;20207;-79
2023/12/11 00:09:27;;;;;;;13.67;3.60;;;10.80;99.90;;;;;;5019298;28;20202;-79
2023/12/11 00:11:54;;;;;;;12.40;3.17;;;10.80;99.90;;;;;;5014932;28;20191;-79
2023/12/11 00:14:22;;;;;;;10.90;3.07;;;10.80;99.90;;;;;;5010145;28;20223;-79
2023/12/11 00:16:49;;;;;;;15.70;3.20;;;10.80;99.90;;;;;;5034647;28;20195;-79
2023/12/11 00:19:17;;;;;;;10.37;2.67;;;10.80;99.90;;;;;;5017722;28;20215;-79
2023/12/11 00:21:44;;;;;;;12.70;3.87;;;10.80;99.90;;;;;;5017005;28;20202;-79
2023/12/11 00:24:13;;;;;;;18.87;3.87;;;10.70;99.90;;;;;;5017421;28;20231;-79
2023/12/11 00:26:41;;;;;;;11.17;3.30;;;10.70;99.90;;;;;;5035731;28;20191;-80
2023/12/11 00:29:09;;;;;;;14.20;3.30;;;10.70;99.90;;;;;;5015013;28;20187;-78
2023/12/11 00:31:37;;;;;;;11.57;2.90;;;10.70;99.90;;;;;;5016300;28;20195;-79
2023/12/11 00:34:04;;;;;;;13.67;3.20;;;10.70;99.90;;;;;;5009377;28;20224;-79
2023/12/11 00:36:32;;;;;;;10.17;3.10;;;10.70;99.90;;;;;;5010072;28;20207;-79
2023/12/11 00:38:59;;;;;;;12.23;3.00;;;10.70;99.90;;;;;;5030367;28;20203;-80
2023/12/11 00:41:28;;;;;;;13.53;3.10;;;10.70;99.90;;;;;;5016587;28;20198;-79
2023/12/11 00:43:56;;;;;;;16.00;3.40;;;10.70;99.90;;;;;;5036119;28;20222;-79
2023/12/11 00:46:24;;;;;;;13.97;4.00;;;10.70;99.90;;;;;;5017575;28;20199;-79
2023/12/11 00:48:51;;;;;;;13.33;3.43;;;10.70;99.90;;;;;;5015732;28;20195;-80
2023/12/11 00:51:20;;;;;;;14.53;3.63;;;10.70;99.90;;;;;;5016929;28;20187;-79
2023/12/11 00:53:48;;;;;;;14.10;3.50;;;10.70;99.90;;;;;;5013280;28;20220;-78
2023/12/11 00:56:16;;;;;;;14.83;3.23;;;10.60;99.90;;;;;;5034296;28;20558;-80
2023/12/11 00:58:45;;;;;;;10.63;3.20;;;10.60;99.90;;;;;;5018228;28;20195;-80
2023/12/11 01:01:13;;;;;;;14.03;3.47;;;10.60;99.90;;;;;;5018401;28;20215;-79
2023/12/11 01:03:40;;;;;;;16.93;4.43;;;10.60;99.90;;;;;;5017754;28;20219;-79
2023/12/11 01:06:08;;;;;;;14.57;4.57;;;10.60;99.90;;;;;;5015959;28;20196;-80
2023/12/11 01:08:38;;;;;;;20.87;4.40;;;10.60;99.90;;;;;;5014084;28;20566;-79
2023/12/11 01:11:06;;;;;;;14.97;3.73;;;10.60;99.90;;;;;;5012839;28;20191;-79
2023/12/11 01:13:34;;;;;;;12.57;3.63;;;10.50;99.90;;;;;;5014876;28;20838;-80
2023/12/11 01:16:03;;;;;;;17.67;4.37;;;10.50;99.90;;;;;;5022468;28;20203;-78
2023/12/11 01:18:30;;;;;;;16.27;3.83;;;10.50;99.90;;;;;;5035675;28;20198;-79
2023/12/11 01:20:59;;;;;;;13.97;4.17;;;10.60;99.90;;;;;;5016235;28;20586;-78
2023/12/11 01:23:27;;;;;;;21.63;5.13;;;10.60;99.90;;;;;;5017668;28;20206;-78
2023/12/11 01:25:54;;;;;;;14.07;4.07;;;10.60;99.90;;;;;;5014204;28;20204;-79
2023/12/11 01:28:22;;;;;;;12.10;3.83;;;10.60;99.90;;;;;;5017159;28;20195;-79
2023/12/11 01:30:50;;;;;;;13.17;3.83;;;10.60;99.90;;;;;;5011474;28;20195;-79
2023/12/11 01:33:18;;;;;;;16.43;5.20;;;10.60;99.90;;;;;;5014704;28;20565;-79
2023/12/11 01:35:46;;;;;;;18.13;4.67;;;10.60;99.90;;;;;;5015121;28;20682;-79
2023/12/11 01:38:14;;;;;;;14.83;4.27;;;10.60;99.90;;;;;;5033066;28;20199;-79
2023/12/11 01:40:41;;;;;;;14.30;3.67;;;10.60;99.90;;;;;;5013712;28;20206;-79
2023/12/11 01:43:15;;;;;;;13.60;3.53;;;10.70;99.90;;;;;;5014608;28;20195;-79
2023/12/11 01:45:43;;;;;;;13.80;3.87;;;10.70;99.90;;;;;;5013479;28;20203;-80
2023/12/11 01:48:11;;;;;;;20.97;4.00;;;10.70;99.90;;;;;;5011603;28;20191;-79
2023/12/11 01:50:40;;;;;;;14.97;4.33;;;10.70;99.90;;;;;;5020115;28;20187;-79
2023/12/11 01:53:09;;;;;;;18.90;4.60;;;10.70;99.90;;;;;;5032577;28;20191;-79
2023/12/11 01:55:37;;;;;;;12.33;4.00;;;10.70;99.90;;;;;;5030786;28;20222;-79
2023/12/11 01:58:06;;;;;;;16.33;4.40;;;10.70;99.90;;;;;;5014154;28;20199;-79
2023/12/11 02:00:34;;;;;;;14.63;4.50;;;10.70;99.90;;;;;;5012492;28;20579;-79
2023/12/11 02:03:02;;;;;;;15.53;4.50;;;10.70;99.90;;;;;;5013790;28;20199;-80
2023/12/11 02:05:29;;;;;;;20.77;4.67;;;10.70;99.90;;;;;;5031284;28;20210;-79
2023/12/11 02:07:58;;;;;;;17.33;3.97;;;10.70;99.90;;;;;;5012218;28;20206;-79
2023/12/11 02:10:26;;;;;;;15.70;3.90;;;10.60;99.90;;;;;;5011012;28;20659;-79
2023/12/11 02:12:54;;;;;;;24.37;5.00;;;10.70;99.90;;;;;;5013674;28;20562;-79
2023/12/11 02:15:37;;;;;;;17.37;3.93;;;10.60;99.90;;;;;;5013045;28;20211;-80
2023/12/11 02:18:05;;;;;;;20.53;3.73;;;10.60;99.90;;;;;;5011233;28;20594;-80
2023/12/11 02:20:33;;;;;;;15.63;3.87;;;10.60;99.90;;;;;;5011216;28;20663;-79
2023/12/11 02:23:05;;;;;;;17.43;4.33;;;10.60;99.90;;;;;;4998487;28;20200;-79
2023/12/11 02:25:36;;;;;;;15.27;3.93;;;10.60;99.90;;;;;;5015359;28;20215;-79
2023/12/11 02:28:05;;;;;;;14.87;3.83;;;10.50;99.90;;;;;;5015245;28;20578;-79
2023/12/11 02:30:35;;;;;;;15.17;4.20;;;10.60;99.90;;;;;;5012179;28;20203;-79
2023/12/11 02:33:03;;;;;;;16.37;3.83;;;10.60;99.90;;;;;;5011459;28;20199;-78
2023/12/11 02:35:31;;;;;;;18.43;3.53;;;10.60;99.90;;;;;;5019344;28;20226;-79
2023/12/11 02:37:58;;;;;;;12.00;3.70;;;10.60;99.90;;;;;;5029759;28;20206;-79
2023/12/11 02:40:26;;;;;;;18.20;5.43;;;10.60;99.90;;;;;;5029857;28;20686;-79
2023/12/11 02:42:53;;;;;;;21.10;4.40;;;10.70;99.90;;;;;;5008580;28;20200;-79
2023/12/11 02:45:22;;;;;;;12.87;3.97;;;10.70;99.90;;;;;;5008688;28;20725;-79
2023/12/11 02:47:50;;;;;;;11.77;3.47;;;10.70;99.90;;;;;;5007128;28;20231;-80
2023/12/11 02:50:17;;;;;;;12.80;3.53;;;10.70;99.90;;;;;;5031290;28;20617;-79
2023/12/11 02:52:45;;;;;;;17.23;4.20;;;10.70;99.90;;;;;;5002832;28;20203;-79
2023/12/11 02:55:12;;;;;;;20.70;4.63;;;10.80;99.90;;;;;;5010399;28;20222;-79
2023/12/11 02:57:40;;;;;;;11.33;3.03;;;10.70;99.90;;;;;;5020079;28;20202;-80
2023/12/11 03:00:09;;;;;;;15.73;4.03;;;10.70;99.90;;;;;;5034395;28;20206;-81
2023/12/11 03:02:39;;;;;;;17.97;4.03;;;10.70;99.90;;;;;;5011477;28;20199;-80
2023/12/11 03:05:07;;;;;;;18.47;3.90;;;10.70;99.90;;;;;;5030895;28;20215;-79
2023/12/11 03:07:35;;;;;;;17.57;4.10;;;10.70;99.90;;;;;;5015432;28;20226;-80
2023/12/11 03:10:02;;;;;;;16.20;4.00;;;10.70;99.90;;;;;;5015259;28;20567;-79
2023/12/11 03:12:30;;;;;;;24.47;4.80;;;10.70;99.90;;;;;;5012950;28;20195;-79
2023/12/11 03:14:58;;;;;;;14.70;3.93;;;10.70;99.90;;;;;;5035281;28;20578;-79
2023/12/11 03:17:25;;;;;;;16.23;4.00;;;10.70;99.90;;;;;;5015711;28;20214;-79
2023/12/11 03:20:00;;;;;;;16.43;4.53;;;10.70;99.90;;;;;;5018192;28;20202;-79
2023/12/11 03:22:27;;;;;;;12.77;3.63;;;10.70;99.90;;;;;;5016506;28;20221;-79
2023/12/11 03:24:55;;;;;;;18.60;5.00;;;10.70;99.90;;;;;;5013731;28;20231;-80
2023/12/11 03:27:23;;;;;;;17.27;4.53;;;10.70;99.90;;;;;;4996885;28;20203;-80
2023/12/11 03:29:50;;;;;;;16.40;4.20;;;10.60;99.90;;;;;;5013858;28;20568;-79
2023/12/11 03:32:18;;;;;;;16.17;4.90;;;10.70;99.90;;;;;;5015544;28;20666;-79
2023/12/11 03:34:46;;;;;;;13.50;3.97;;;10.70;99.90;;;;;;5013513;28;20686;-81
2023/12/11 03:37:15;;;;;;;11.93;3.57;;;10.70;99.90;;;;;;5020075;28;20206;-81
2023/12/11 03:39:42;;;;;;;15.07;3.33;;;10.70;99.90;;;;;;5015408;28;20207;-81
2023/12/11 03:42:10;;;;;;;17.23;3.70;;;10.70;99.90;;;;;;5016178;28;20203;-81
2023/12/11 03:44:37;;;;;;;16.83;4.77;;;10.70;99.90;;;;;;5013909;28;20219;-81
2023/12/11 03:47:05;;;;;;;22.07;4.40;;;10.70;99.90;;;;;;5032718;28;20210;-81
2023/12/11 03:49:33;;;;;;;19.43;4.30;;;10.70;99.90;;;;;;5035317;28;20211;-81
2023/12/11 03:52:01;;;;;;;17.33;3.50;;;10.80;99.90;;;;;;5024191;28;20194;-81
2023/12/11 03:54:29;;;;;;;16.03;3.67;;;10.80;99.90;;;;;;5023953;28;20211;-81
2023/12/11 03:57:00;;;;;;;12.07;2.63;;;10.80;99.90;;;;;;5025289;28;20222;-80
2023/12/11 03:59:27;;;;;;;10.47;3.60;;;10.80;99.90;;;;;;5022013;28;20202;-81
2023/12/11 04:01:55;;;;;;;15.33;3.00;;;10.80;99.90;;;;;;5033229;28;20687;-81
2023/12/11 04:04:22;;;;;;;11.57;2.97;;;10.60;99.90;;;;;;5034634;28;20210;-81
2023/12/11 04:06:50;;;;;;;10.53;2.53;;;10.50;99.90;;;;;;5032143;28;20203;-81
2023/12/11 04:09:17;;;;;;;17.47;3.30;;;10.30;99.90;;;;;;5025439;28;20227;-81
2023/12/11 04:11:46;;;;;;;15.33;2.90;;;10.30;99.90;;;;;;5019246;28;20203;-81
2023/12/11 04:14:14;;;;;;;9.47;3.50;;;10.30;99.90;;;;;;5014838;28;20226;-81
2023/12/11 04:16:42;;;;;;;14.57;2.97;;;10.30;99.90;;;;;;5015246;28;20195;-81
2023/12/11 04:19:11;;;;;;;16.60;3.30;;;10.20;99.90;;;;;;5016347;28;20200;-81
2023/12/11 04:21:39;;;;;;;13.93;3.43;;;10.30;99.90;;;;;;5016571;28;20570;-81
2023/12/11 04:24:07;;;;;;;11.93;3.43;;;10.30;99.90;;;;;;5014493;28;20226;-81
2023/12/11 04:26:34;;;;;;;14.07;3.53;;;10.40;99.90;;;;;;5019314;28;20195;-81
2023/12/11 04:29:03;;;;;;;17.33;3.80;;;10.40;99.90;;;;;;5010992;28;20200;-81
2023/12/11 04:31:32;;;;;;;12.17;2.97;;;10.40;99.90;;;;;;5013142;28;20202;-81
2023/12/11 04:33:59;;;;;;;16.23;4.13;;;10.40;99.90;;;;;;5015314;28;20239;-81
2023/12/11 04:36:27;;;;;;;17.53;3.77;;;10.40;99.90;;;;;;5017232;28;20214;-81
2023/12/11 04:38:54;;;;;;;17.87;3.97;;;10.50;99.90;;;;;;5016277;28;20183;-81
2023/12/11 04:41:22;;;;;;;17.10;3.17;;;10.50;99.90;;;;;;5017495;28;20215;-81
2023/12/11 04:43:49;;;;;;;19.40;4.30;;;10.60;99.90;;;;;;5016979;28;20222;-81
2023/12/11 04:46:18;;;;;;;18.73;4.00;;;10.50;99.90;;;;;;5034251;28;20195;-80
2023/12/11 04:48:46;;;;;;;15.60;3.83;;;10.60;99.90;;;;;;5018005;28;20583;-81
2023/12/11 04:51:13;;;;;;;12.87;3.70;;;10.60;99.90;;;;;;5016683;28;20639;-80
2023/12/11 04:53:41;;;;;;;10.53;2.97;;;10.60;99.90;;;;;;5016813;28;20214;-80
2023/12/11 04:56:10;;;;;;;9.60;2.63;;;10.40;99.90;;;;;;5014136;28;20196;-80
2023/12/11 04:58:37;;;;;;;13.63;3.00;;;10.30;99.90;;;;;;5011395;28;20199;-80
2023/12/11 05:01:05;;;;;;;7.80;2.70;;;10.20;99.90;;;;;;5016555;28;20206;-80
2023/12/11 05:03:34;;;;;;;9.97;2.47;;;10.20;99.90;;;;;;5015787;28;20199;-80
2023/12/11 05:06:02;;;;;;;16.90;3.03;;;10.30;99.90;;;;;;5003045;28;20207;-80
2023/12/11 05:08:29;;;;;;;10.60;3.27;;;10.30;99.90;;;;;;5017428;28;20202;-80
2023/12/11 05:10:57;;;;;;;12.33;3.30;;;10.20;99.90;;;;;;5016170;28;20207;-80
2023/12/11 05:13:24;;;;;;;10.90;3.77;;;10.30;99.90;;;;;;5015482;28;20192;-80
2023/12/11 05:15:52;;;;;;;16.10;3.27;;;10.30;99.90;;;;;;5008256;28;20191;-80
2023/12/11 05:18:19;;;;;;;11.57;3.10;;;10.20;99.90;;;;;;5031654;28;20653;-80
2023/12/11 05:20:48;;;;;;;15.00;3.53;;;10.20;99.90;;;;;;5015461;28;20222;-80
2023/12/11 05:23:15;;;;;;;13.77;3.90;;;10.20;99.90;;;;;;5014692;28;20218;-80
2023/12/11 05:25:43;;;;;;;8.93;2.63;;;10.30;99.90;;;;;;5034097;28;20222;-80
2023/12/11 05:28:11;;;;;;;14.33;3.07;;;10.30;99.90;;;;;;5008462;28;20204;-80
2023/12/11 05:30:38;;;;;;;14.23;3.17;;;10.30;99.90;;;;;;5014000;28;20198;-80
2023/12/11 05:33:06;;;;;;;10.43;2.87;;;10.30;99.90;;;;;;5009882;28;20191;-80
2023/12/11 05:35:33;;;;;;;9.53;2.87;;;10.30;99.90;;;;;;5033557;28;20333;-80
2023/12/11 05:38:02;;;;;;;13.57;3.37;;;10.40;99.90;;;;;;5016446;28;20206;-80
2023/12/11 05:40:30;;;;;;;10.93;2.47;;;10.30;99.90;;;;;;5013027;28;20570;-80
2023/12/11 05:42:58;;;;;;;13.50;2.90;;;10.30;99.90;;;;;;5032289;28;20619;-80
2023/12/11 05:45:25;;;;;;;9.63;2.97;;;10.20;99.90;;;;;;5015257;28;20234;-80
2023/12/11 05:47:53;;;;;;;12.60;2.90;;;10.20;99.90;;;;;;5007189;28;20199;-80
2023/12/11 05:50:21;;;;;;;13.17;2.90;;;10.20;99.90;;;;;;5033783;28;20191;-80
2023/12/11 05:52:48;;;;;;;8.60;2.13;;;10.20;99.90;;;;;;5034698;28;20202;-80
2023/12/11 05:55:17;;;;;;;13.70;3.13;;;10.20;99.90;;;;;;5012524;28;20567;-80
2023/12/11 05:57:45;;;;;;;9.17;2.40;;;10.20;99.90;;;;;;5017501;28;20195;-80
2023/12/11 06:00:13;;;;;;;10.90;3.10;;;10.20;99.90;;;;;;5033609;28;20199;-80
2023/12/11 06:02:41;;;;;;;12.97;2.57;;;10.30;99.90;;;;;;5013281;28;20211;-81
2023/12/11 06:05:09;;;;;;;17.70;3.27;;;10.30;99.90;;;;;;5035172;28;20573;-81
2023/12/11 06:07:37;;;;;;;19.40;2.70;;;10.30;99.90;;;;;;5017288;28;20195;-81
2023/12/11 06:10:05;;;;;;;12.47;2.83;;;10.30;99.90;;;;;;5035186;28;20658;-81
2023/12/11 06:12:34;;;;;;;11.57;3.77;;;10.30;99.90;;;;;;5016736;28;20550;-81
2023/12/11 06:15:02;;;;;;;10.73;2.90;;;10.30;99.90;;;;;;5015515;28;20258;-81
2023/12/11 06:17:29;;;;;;;13.43;3.83;;;10.30;99.90;;;;;;5015703;28;20559;-81
2023/12/11 06:19:57;;;;;;;18.37;3.83;;;10.30;99.90;;;;;;5010909;28;20195;-80
2023/12/11 06:22:24;;;;;;;12.77;3.27;;;10.30;99.90;;;;;;5012627;28;20234;-81
2023/12/11 06:24:52;;;;;;;13.40;3.47;;;10.30;99.90;;;;;;5009750;28;20215;-81
2023/12/11 06:27:19;;;;;;;19.17;4.13;;;10.40;99.90;;;;;;5013100;28;20203;-81
2023/12/11 06:29:48;;;;;;;21.43;4.27;;;10.40;99.90;;;;;;5013784;28;20217;-81
2023/12/11 06:32:16;;;;;;;10.20;2.80;;;10.40;99.90;;;;;;5032161;28;20214;-81
2023/12/11 06:34:43;;;;;;;14.30;3.50;;;10.40;99.90;;;;;;5022251;28;20229;-81
2023/12/11 06:37:11;;;;;;;12.03;3.43;;;10.40;99.90;;;;;;5018524;28;20203;-81
2023/12/11 06:39:38;;;;;;;9.67;3.63;;;10.40;99.90;;;;;;5029355;28;20214;-81
2023/12/11 06:42:07;;;;;;;13.37;2.80;;;10.50;99.90;;;;;;5016326;28;20195;-80
2023/12/11 06:44:36;;;;;;;11.83;2.97;;;10.50;99.90;;;;;;5038440;28;20223;-81
2023/12/11 06:47:05;;;;;;;15.47;3.47;;;10.50;99.90;;;;;;5015780;28;20541;-81
2023/12/11 06:49:33;;;;;;;11.70;3.40;;;10.50;99.90;;;;;;5028504;28;20206;-80
2023/12/11 06:52:01;;;;;;;14.83;3.30;;;10.70;99.90;;;;;;5029930;28;20201;-81
2023/12/11 06:54:28;;;;;;;8.70;2.80;;;10.60;99.90;;;;;;5019192;28;20222;-81
2023/12/11 06:56:56;;;;;;;12.13;3.47;;;10.60;99.90;;;;;;5004348;28;20206;-80
2023/12/11 06:59:23;;;;;;;12.27;3.67;;;10.50;99.90;;;;;;5035197;28;20194;-80
2023/12/11 07:01:51;;;;;;;11.67;2.73;;;10.40;99.90;;;;;;5034985;28;20191;-81
2023/12/11 07:04:20;;;;;;;11.03;2.90;;;10.40;99.90;;;;;;5019289;28;20689;-79
2023/12/11 07:07:06;;;;;;;8.63;2.90;;;10.30;99.90;;;;;;5022320;28;20203;-80
2023/12/11 07:09:33;;;;;;;10.10;2.97;;;10.40;99.90;;;;;;5019010;28;20654;-80
2023/12/11 07:12:01;;;;;;;18.80;3.80;;;10.40;99.90;;;;;;5017116;28;20208;-80
2023/12/11 07:14:29;;;;;;;11.87;3.00;;;10.40;99.90;;;;;;5016186;28;20219;-80
2023/12/11 07:16:56;;;;;;;10.57;2.77;;;10.40;99.90;;;;;;5016488;28;20203;-81
2023/12/11 07:19:25;;;;;;;11.20;2.97;;;10.40;99.90;;;;;;5038517;28;20650;-80
2023/12/11 07:21:53;;;;;;;13.97;2.97;;;10.40;99.90;;;;;;5022658;28;20643;-81
2023/12/11 07:24:23;;;;;;;12.07;3.17;;;10.40;99.90;;;;;;5017144;28;20226;-80
2023/12/11 07:26:51;;;;;;;18.97;3.53;;;10.40;99.90;;;;;;5013943;28;20211;-81
2023/12/11 07:29:30;;;;;;;14.20;3.93;;;10.40;99.90;;;;;;5011633;28;20191;-80
2023/12/11 07:31:58;;;;;;;19.93;4.40;;;10.40;99.90;;;;;;5014892;28;20210;-80
2023/12/11 07:34:27;;;;;;;14.33;4.00;;;10.40;99.90;;;;;;5025147;28;20226;-80
2023/12/11 07:36:55;;;;;;;12.77;2.90;;;10.40;99.90;;;;;;5014513;28;20211;-80
2023/12/11 07:39:22;;;;;;;13.67;3.10;;;10.40;99.90;;;;;;5014700;28;20206;-79
2023/12/11 07:41:50;;;;;;;12.57;2.97;;;10.40;99.90;;;;;;5014889;28;20214;-79
2023/12/11 07:44:17;;;;;;;9.43;3.00;;;10.30;99.90;;;;;;5009094;28;20222;-79
2023/12/11 07:46:45;;;;;;;14.23;3.50;;;10.30;99.90;;;;;;5036995;28;20195;-79
2023/12/11 07:49:14;;;;;;;14.17;3.67;;;10.30;99.90;;;;;;5018278;28;20206;-80
2023/12/11 07:51:44;;;;;;;13.97;3.53;;;10.20;99.90;;;;;;5015480;28;20199;-82
2023/12/11 07:54:12;;;;;;;12.40;4.07;;;10.10;99.90;;;;;;5011754;28;20216;-81
2023/12/11 07:56:40;;;;;;;9.47;3.50;;;10.10;99.90;;;;;;5016467;28;20624;-81
2023/12/11 07:59:08;;;;;;;8.67;2.57;;;10.10;99.90;;;;;;5010050;28;20207;-80
2023/12/11 08:01:35;;;;;;;15.23;3.63;;;10.20;99.90;;;;;;5032726;28;20206;-80
2023/12/11 08:04:03;;;;;;;14.80;3.33;;;10.20;99.90;;;;;;5011972;28;20226;-81
2023/12/11 08:06:30;;;;;;;15.70;4.17;;;10.20;99.90;;;;;;5036620;28;20199;-80
2023/12/11 08:09:00;;;;;;;8.23;3.37;;;10.20;99.90;;;;;;5018331;28;20195;-80
2023/12/11 08:11:28;;;;;;;11.03;3.87;;;10.20;99.90;;;;;;5014192;28;20203;-80
2023/12/11 08:13:56;;;;;;;8.93;2.73;;;10.20;99.90;;;;;;5024840;28;20218;-80
2023/12/11 08:16:24;;;;;;;16.50;3.50;;;10.30;99.90;;;;;;5019836;28;20206;-81
2023/12/11 08:18:51;;;;;;;11.53;2.53;;;10.30;99.90;;;;;;5036299;28;20207;-81
2023/12/11 08:21:19;;;;;;;11.00;3.07;;;10.30;99.90;;;;;;5030588;28;20207;-79
2023/12/11 08:23:47;;;;;;;8.57;3.23;;;10.30;99.90;;;;;;5021241;28;20239;-80
2023/12/11 08:26:19;;;;;;;12.93;3.73;;;10.30;99.90;;;;;;5035287;28;20198;-82
2023/12/11 08:28:47;;;;;;;11.97;3.23;;;10.20;99.90;;;;;;5041069;28;20191;-80
2023/12/11 08:31:15;;;;;;;14.67;3.57;;;10.20;99.90;;;;;;5022369;28;20206;-81
2023/12/11 08:33:43;;;;;;;11.17;2.93;;;10.10;99.90;;;;;;5030991;28;20600;-81
2023/12/11 08:36:11;;;;;;;10.77;3.30;;;10.20;99.90;;;;;;5043052;28;20191;-81
2023/12/11 08:38:38;;;;;;;16.37;3.17;;;10.10;99.90;;;;;;5021323;28;20202;-81
2023/12/11 08:41:06;;;;;;;14.63;3.30;;;10.20;99.90;;;;;;5032120;28;20655;-81
2023/12/11 08:43:35;;;;;;;9.43;2.97;;;10.20;99.90;;;;;;5028686;28;20207;-80
2023/12/11 08:46:03;;;;;;;11.53;3.27;;;10.20;99.90;;;;;;5022271;28;20199;-81
2023/12/11 08:48:30;;;;;;;11.67;3.83;;;10.30;99.90;;;;;;5004716;28;20203;-81
2023/12/11 08:50:58;;;;;;;14.73;4.10;;;10.30;99.90;;;;;;5020863;28;20195;-79
2023/12/11 08:53:25;;;;;;;12.40;3.50;;;10.40;99.90;;;;;;5027840;28;20210;-82
2023/12/11 08:55:53;;;;;;;10.10;3.10;;;10.40;99.90;;;;;;5017825;28;20195;-82
2023/12/11 08:58:21;;;;;;;11.83;2.83;;;10.40;99.90;;;;;;5032291;28;20666;-81
2023/12/11 09:00:50;;;;;;;13.87;3.23;;;10.40;99.90;;;;;;5019621;28;20203;-81
2023/12/11 09:03:18;;;;;;;15.73;3.50;;;10.40;99.90;;;;;;5035781;28;20195;-81
2023/12/11 09:05:45;;;;;;;9.10;3.07;;;10.40;99.90;;;;;;5022523;28;20203;-81
2023/12/11 09:08:13;;;;;;;10.90;3.33;;;10.40;99.90;;;;;;5016057;28;20207;-81
2023/12/11 09:10:41;;;;;;;11.27;2.97;;;10.40;99.90;;;;;;5033147;28;20202;-82
2023/12/11 09:13:09;;;;;;;17.00;3.37;;;10.40;99.90;;;;;;5022275;28;20199;-82
2023/12/11 09:15:37;;;;;;;15.57;3.70;;;10.40;99.90;;;;;;5036884;28;20215;-81
2023/12/11 09:18:06;;;;;;;11.40;3.07;;;10.50;99.90;;;;;;5019187;28;20195;-82
2023/12/11 09:20:34;;;;;;;14.43;3.10;;;10.50;99.90;;;;;;5018022;28;20190;-81
2023/12/11 09:23:01;;;;;;;12.07;2.70;;;10.50;99.90;;;;;;5017685;28;20190;-82
2023/12/11 09:25:31;;;;;;;11.70;3.30;;;10.50;99.90;;;;;;5034551;28;20221;-81
2023/12/11 09:27:59;;;;;;;12.67;3.17;;;10.50;99.90;;;;;;5016368;28;20200;-82
2023/12/11 09:30:28;;;;;;;10.50;2.90;;;10.50;99.90;;;;;;5018136;28;20198;-81
2023/12/11 09:32:55;;;;;;;8.50;2.63;;;10.60;99.90;;;;;;5017458;28;20195;-82
2023/12/11 09:35:24;;;;;;;6.43;2.40;;;10.60;99.90;;;;;;5051826;23;20234;-78
2023/12/11 09:37:52;;;;;;;11.10;3.07;;;10.60;99.90;;;;;;5035346;28;20210;-78
2023/12/11 09:40:19;;;;;;;8.73;2.97;;;10.60;99.90;;;;;;5034796;28;20574;-78
2023/12/11 09:42:50;;;;;;;6.13;2.47;;;10.60;99.90;;;;;;5017061;28;20213;-78
2023/12/11 09:45:21;;;;;;;7.43;2.20;;;10.60;99.90;;;;;;5022893;28;20230;-78
2023/12/11 09:47:52;;;;;;;9.67;2.57;;;10.50;99.90;;;;;;4996942;28;20589;-78
2023/12/11 09:50:20;;;;;;;8.23;2.80;;;10.50;99.90;;;;;;4998179;28;20195;-78
2023/12/11 09:52:51;;;;;;;6.87;2.23;;;10.40;99.90;;;;;;4998164;28;20215;-78
2023/12/11 09:55:19;;;;;;;8.30;2.80;;;10.40;99.90;;;;;;5002618;28;20188;-78
2023/12/11 09:57:48;;;;;;;10.50;2.80;;;10.40;99.90;;;;;;5013452;28;20210;-78
2023/12/11 10:00:16;;;;;;;6.37;1.70;;;10.40;99.90;;;;;;4992347;28;20277;-79
2023/12/11 10:02:48;;;;;;;9.23;2.00;;;10.30;99.90;;;;;;4995338;28;20205;-78
2023/12/11 10:05:24;;;;;;;5.40;2.47;;;10.30;99.90;;;;;;4999881;28;20204;-78
2023/12/11 10:07:53;;;;;;;8.57;2.67;;;10.40;99.90;;;;;;4995934;28;20203;-78
2023/12/11 10:10:22;;;;;;;9.10;2.67;;;10.40;99.90;;;;;;5006592;28;20575;-78
2023/12/11 10:12:50;;;;;;;5.10;1.97;;;10.40;99.90;;;;;;4997728;28;20208;-78
2023/12/11 10:15:23;;;;;;;7.37;2.57;;;10.40;99.90;;;;;;5013642;28;20195;-78
2023/12/11 10:18:05;;;;;;;8.67;2.60;;;10.40;99.90;;;;;;4999415;28;20206;-78
2023/12/11 10:20:33;;;;;;;6.87;2.50;;;10.40;99.90;;;;;;5001410;28;20214;-78
2023/12/11 10:23:11;;;;;;;7.50;2.73;;;10.40;99.90;;;;;;4995376;28;20200;-78
2023/12/11 10:25:42;;;;;;;9.83;2.93;;;10.40;99.90;;;;;;5009514;28;20215;-78
2023/12/11 10:28:10;;;;;;;9.97;2.70;;;10.50;99.90;;;;;;4978344;28;20205;-78
2023/12/11 10:30:52;;;;;;;6.20;2.20;;;10.40;99.90;;;;;;4994674;28;20201;-78
2023/12/11 10:33:21;;;;;;;9.53;2.50;;;10.40;99.90;;;;;;5008426;28;20207;-78
2023/12/11 10:35:49;;;;;;;6.10;1.90;;;10.40;99.90;;;;;;4992722;28;20224;-78
2023/12/11 10:38:23;;;;;;;8.67;2.53;;;10.40;99.90;;;;;;4978059;28;20215;-78
2023/12/11 10:40:51;;;;;;;5.93;2.20;;;10.40;99.90;;;;;;4996611;28;20552;-78
2023/12/11 10:43:19;;;;;;;6.23;2.20;;;10.40;99.90;;;;;;4993961;28;20216;-78
2023/12/11 10:45:47;;;;;;;8.30;2.30;;;10.40;99.90;;;;;;5001520;28;20243;-78
2023/12/11 10:48:14;;;;;;;6.73;2.20;;;10.40;99.90;;;;;;4988398;28;20188;-78
2023/12/11 10:50:42;;;;;;;4.87;1.90;;;10.40;99.90;;;;;;5001120;28;20200;-78
2023/12/11 10:53:09;;;;;;;6.97;1.87;;;10.40;99.90;;;;;;5004782;28;20200;-79
2023/12/11 10:55:40;;;;;;;5.27;2.17;;;10.40;99.90;;;;;;5009611;28;20270;-78
2023/12/11 10:58:08;;;;;;;7.50;3.13;;;10.30;99.90;;;;;;5006534;28;20207;-78
2023/12/11 11:00:37;;;;;;;6.23;2.03;;;10.30;99.90;;;;;;5013293;28;20196;-79
2023/12/11 11:03:07;;;;;;;5.10;2.23;;;10.30;99.90;;;;;;5001784;28;20196;-78
2023/12/11 11:05:35;;;;;;;8.17;2.43;;;10.30;99.90;;;;;;4990612;28;20216;-79
2023/12/11 11:08:12;;;;;;;10.23;2.20;;;10.30;99.90;;;;;;4979404;28;20200;-78
2023/12/11 11:10:55;;;;;;;4.60;1.70;;;10.10;99.90;;;;;;4990921;28;20566;-78
2023/12/11 11:13:28;;;;;;;8.87;2.10;;;10.10;99.90;;;;;;4995022;28;20196;-79
2023/12/11 11:15:57;;;;;;;3.97;1.70;;;10.00;99.90;;;;;;4988614;28;20220;-79
2023/12/11 11:18:24;;;;;;;6.40;2.83;;;9.90;99.90;;;;;;5007707;28;20203;-78
2023/12/11 11:21:29;;;;;;;;;;;;;;;;;;;;;
2023/12/11 11:24:40;;;;;;;;;;;;;;;;;;;;;
2023/12/11 11:27:42;;;;;;;5.20;2.00;;;9.90;99.90;;;;;;5008619;28;20215;-78
2023/12/11 11:30:20;;;;;;;;;;;;;;;;;;;;;
2023/12/11 11:32:55;;;;;;;6.33;2.63;;;9.90;99.90;;;;;;5007309;28;20200;-79
2023/12/11 11:35:47;;;;;;;6.83;2.80;;;9.90;99.90;;;;;;5007779;28;20191;-79
2023/12/11 11:38:16;;;;;;;4.37;2.90;;;10.00;99.90;;;;;;4994186;28;20195;-78
2023/12/11 11:40:43;;;;;;;5.73;2.80;;;10.00;99.90;;;;;;4992428;28;20207;-79
2023/12/11 11:43:13;;;;;;;7.33;2.90;;;10.00;99.90;;;;;;4988743;28;20655;-78
2023/12/11 11:45:41;;;;;;;7.53;3.40;;;10.10;99.90;;;;;;4991456;28;20222;-79
2023/12/11 11:48:09;;;;;;;9.93;3.23;;;10.10;99.90;;;;;;4991142;28;20670;-79
2023/12/11 11:50:56;;;;;;;6.90;3.13;;;10.10;99.90;;;;;;4990374;28;20199;-78
2023/12/11 11:53:24;;;;;;;8.87;2.80;;;10.10;99.90;;;;;;4995307;28;20211;-79
2023/12/11 11:55:51;;;;;;;9.40;3.07;;;10.20;99.90;;;;;;4996453;28;20691;-78
2023/12/11 11:58:21;;;;;;;5.40;2.23;;;11.30;99.90;;;;;;4993789;28;20196;-78
2023/12/11 12:00:49;;;;;;;5.40;2.90;;;11.10;99.90;;;;;;4988548;28;20267;-78
2023/12/11 12:03:16;;;;;;;4.50;2.33;;;11.20;99.90;;;;;;4990976;28;20204;-77
2023/12/11 12:05:55;;;;;;;6.93;2.40;;;10.70;99.90;;;;;;4992103;28;20220;-80
2023/12/11 12:08:22;;;;;;;6.73;2.50;;;10.40;99.90;;;;;;5001251;28;20192;-79
2023/12/11 12:10:50;;;;;;;5.13;2.03;;;10.30;99.90;;;;;;4988827;28;20200;-79
2023/12/11 12:13:17;;;;;;;4.43;1.97;;;10.20;99.90;;;;;;4994229;28;20197;-79
2023/12/11 12:15:49;;;;;;;7.80;2.70;;;10.20;99.90;;;;;;5007666;28;20726;-79
2023/12/11 12:18:16;;;;;;;7.90;2.30;;;10.20;99.90;;;;;;4987086;28;20201;-79
2023/12/11 12:20:45;;;;;;;3.20;2.23;;;10.20;99.90;;;;;;5008984;28;20192;-80
2023/12/11 12:23:12;;;;;;;4.93;2.50;;;10.20;99.90;;;;;;5001584;28;20192;-79
2023/12/11 12:25:39;;;;;;;5.37;2.40;;;10.20;99.90;;;;;;5008965;28;20231;-79
2023/12/11 12:28:12;;;;;;;5.87;3.20;;;10.20;99.90;;;;;;5006574;28;20200;-79
2023/12/11 12:30:40;;;;;;;6.87;3.00;;;10.20;99.90;;;;;;5002637;28;20196;-80
2023/12/11 12:33:10;;;;;;;4.90;2.33;;;10.20;99.90;;;;;;5002243;28;20199;-79
2023/12/11 12:35:38;;;;;;;6.13;2.50;;;10.10;99.90;;;;;;5019709;28;20219;-80
2023/12/11 12:38:07;;;;;;;5.10;2.43;;;10.20;99.90;;;;;;4990379;28;20207;-79
2023/12/11 12:40:34;;;;;;;5.17;2.07;;;10.20;99.90;;;;;;5018509;28;20196;-80
2023/12/11 12:43:10;;;;;;;6.03;2.37;;;10.10;99.90;;;;;;5016731;28;20207;-80
2023/12/11 12:45:38;;;;;;;4.40;2.40;;;10.10;99.90;;;;;;5009260;28;20226;-79
2023/12/11 12:48:06;;;;;;;7.27;2.60;;;10.20;99.90;;;;;;4981648;28;20212;-79
2023/12/11 12:50:35;;;;;;;6.23;1.97;;;10.10;99.90;;;;;;4999969;28;20192;-80
2023/12/11 12:53:07;;;;;;;6.83;2.30;;;10.10;99.90;;;;;;5017865;28;20195;-80